Create Custom Reports and Graphics: Custom Report

Stanford Met Tower

Current Conditions

9/17/21 6:45 PM (-07:00)
Updated Every 15 Minutes
Temp 65.6 °F   0.3
RH 61 %   8
Dew Pt 52.0 °F   2.9
Wind Dir SW | 216 °
Wind Spd 11.1 mph   7.8
Wind Gust 18.8 mph   11.9
NowCast AQI Value 41 AQI   8
NowCast AQI Status Good
Daily Min Temp 57.0 °F   1.4
Daily Max Temp 75.9 °F   4.5
Daily Max Wind 22.1 mph   6.6
Yesterday’s Min Temp 55.6 °F
Yesterday's Max Temp 71.4 °F
Yesterday's Max Wind 15.5 mph
Seasonal Rainfall 0.02 In

Last 48 Hours

Stanford Met Tower

Hourly Data | America/Los_Angeles
as of 9/17/21 7:10 PM PDT
Date & Time Temp (°F) RH (%) Dew Pt (°F) Wind Dir (°) Wind Spd (mph) Wind Gust (mph) Solar Rad (W/m2) Pressure (mb) (mb) NowCast AQI Value (AQI) NowCast AQI Status Latest Rain (In) Daily Rain (In) Daily Min Temp (°F) Daily Max Temp (°F)
9/17/21 - 1800 70.1 55 53.2 SW | 216 10.4 22.1 263 1,015.2 41 Good 0.00 0.00 57.0 75.9
9/17/21 - 1700 73.1 51 54.1 SW | 229 8.8 17.9 443 1,015.0 40 Good 0.00 0.00 57.0 75.9
9/17/21 - 1600 72.5 57 56.3 N | 6 5.0 16.6 602 1,015.1 38 Good 0.00 0.00 57.0 75.9
9/17/21 - 1500 70.6 62 57.1 N | 11 5.6 12.0 713 1,015.1 31 Good 0.00 0.00 57.0 71.9
9/17/21 - 1400 70.2 62 56.8 NE | 34 6.5 12.4 770 1,015.3 28 Good 0.00 0.00 57.0 71.2
9/17/21 - 1300 68.6 65 56.4 NE | 40 5.4 10.8 771 1,015.7 28 Good 0.00 0.00 57.0 70.5
9/17/21 - 1200 67.4 65 55.4 NNE | 31 5.5 11.9 709 1,015.8 30 Good 0.00 0.00 57.0 68.9
9/17/21 - 1100 65.1 67 53.8 NE | 35 3.1 7.4 594 1,016.1 30 Good 0.00 0.00 57.0 67.8
9/17/21 - 1000 61.5 75 53.4 ENE | 72 3.1 7.0 400 1,016.6 25 Good 0.00 0.00 57.0 63.5
9/17/21 - 0900 59.0 80 52.8 S | 179 2.6 6.0 101 1,016.6 24 Good 0.00 0.00 57.0 60.1
9/17/21 - 0800 57.3 83 52.1 SW | 221 3.3 8.2 23 1,016.4 19 Good 0.00 0.00 57.0 59.5
9/17/21 - 0700 57.4 82 52.1 SW | 224 4.2 8.0 0 1,015.8 21 Good 0.00 0.00 57.2 59.5
9/17/21 - 0600 58.2 81 52.2 SW | 218 3.2 6.6 0 1,015.1 21 Good 0.00 0.00 57.7 59.5
9/17/21 - 0500 58.3 80 52.2 SSW | 213 3.4 7.7 0 1,014.4 21 Good 0.00 0.00 58.2 59.5
9/17/21 - 0400 58.8 80 52.7 SW | 215 4.7 8.8 0 1,014.3 22 Good 0.00 0.00 58.5 59.5
9/17/21 - 0300 59.0 80 52.9 SW | 220 4.1 8.0 0 1,014.5 24 Good 0.00 0.00 58.8 59.5
9/17/21 - 0200 58.9 80 52.8 SW | 219 4.1 8.8 0 1,014.7 26 Good 0.00 0.00 58.8 59.5
9/17/21 - 0100 59.6 80 53.6 SW | 219 4.4 9.5 0 1,014.7 35 Good 0.00 0.00 55.6 71.4
9/17/21 - 0000 60.9 81 55.1 ESE | 109 2.6 6.2 0 1,014.3 38 Good 0.00 0.00 55.6 71.4
9/16/21 - 2300 59.3 85 54.8 SSE | 149 2.4 6.0 0 1,014.0 38 Good 0.00 0.00 55.6 71.4
9/16/21 - 2200 57.6 85 53.3 SSW | 206 3.5 6.7 0 1,014.0 37 Good 0.00 0.00 55.6 71.4
9/16/21 - 2100 59.4 80 53.2 SSW | 213 4.1 9.2 0 1,013.3 37 Good 0.00 0.00 55.6 71.4
9/16/21 - 2000 62.2 73 53.6 SSW | 195 4.5 10.4 2 1,012.5 37 Good 0.00 0.00 55.6 71.4
9/16/21 - 1900 66.0 68 55.0 NNE | 22 4.7 9.9 92 1,012.0 36 Good 0.00 0.00 55.6 71.4
9/16/21 - 1800 69.6 62 56.2 NNE | 28 5.4 10.5 277 1,011.3 33 Good 0.00 0.00 55.6 71.4
9/16/21 - 1700 70.6 61 56.5 NNE | 27 5.2 11.1 457 1,011.3 30 Good 0.00 0.00 55.6 71.3
9/16/21 - 1600 69.8 63 56.9 NNE | 29 6.3 12.8 610 1,011.5 31 Good 0.00 0.00 55.6 71.2
9/16/21 - 1500 68.6 67 57.3 N | 11 8.3 15.5 725 1,011.3 33 Good 0.00 0.00 55.6 71.2
9/16/21 - 1400 69.8 62 56.4 NNE | 28 6.0 14.1 784 1,011.3 34 Good 0.00 0.00 55.6 71.2
9/16/21 - 1300 67.9 63 54.9 NE | 37 5.8 12.0 780 1,011.9 37 Good 0.00 0.00 55.6 69.4
9/16/21 - 1200 66.8 63 53.8 NE | 42 5.8 12.3 718 1,012.4 33 Good 0.00 0.00 55.6 68.2
9/16/21 - 1100 65.5 62 52.3 S | 179 2.9 8.8 604 1,012.9 22 Good 0.00 0.00 55.6 66.6
9/16/21 - 1000 62.2 68 51.3 ESE | 118 2.3 6.1 443 1,013.6 29 Good 0.00 0.00 55.6 65.0
9/16/21 - 0900 57.8 75 50.1 SSW | 206 3.4 8.6 251 1,013.9 35 Good 0.00 0.00 55.6 60.7
9/16/21 - 0800 56.3 76 48.8 SW | 223 3.7 7.9 35 1,013.6 36 Good 0.00 0.00 55.6 59.4
9/16/21 - 0700 57.5 77 50.5 WSW | 237 2.8 5.3 1 1,013.2 39 Good 0.00 0.00 57.1 59.4
9/16/21 - 0600 57.7 76 50.3 SSW | 212 4.0 7.8 0 1,012.8 40 Good 0.00 0.00 57.4 59.4
9/16/21 - 0500 58.0 77 51.0 WSW | 242 3.1 6.4 0 1,012.9 39 Good 0.00 0.00 57.8 59.4
9/16/21 - 0400 58.2 77 51.2 W | 266 3.0 5.9 0 1,013.1 40 Good 0.00 0.00 57.8 59.4
9/16/21 - 0300 58.7 80 52.7 WSW | 240 2.6 7.7 0 1,013.4 49 Good 0.00 0.00 58.3 59.4
9/16/21 - 0200 58.6 79 52.2 SW | 220 3.2 6.4 0 1,014.0 51 Moderate 0.00 0.00 58.3 59.4
9/16/21 - 0100 59.7 84 54.8 SSE | 151 3.2 7.8 0 1,014.3 52 Moderate 0.00 0.00 57.6 72.7
9/16/21 - 0000 59.6 86 55.6 SE | 125 4.2 9.8 0 1,014.4 53 Moderate 0.00 0.00 57.6 72.7
9/15/21 - 2300 57.9 88 54.3 SE | 134 4.2 6.7 0 1,014.5 52 Moderate 0.00 0.00 57.6 72.7
9/15/21 - 2200 58.6 83 53.5 SE | 129 4.1 6.7 0 1,014.5 51 Moderate 0.00 0.00 57.7 72.7
9/15/21 - 2100 60.8 76 53.4 E | 93 3.2 7.2 0 1,014.0 51 Moderate 0.00 0.00 59.0 72.7
9/15/21 - 2000 62.9 74 54.6 NE | 42 4.0 7.2 3 1,013.4 48 Good 0.00 0.00 59.0 72.7
9/15/21 - 1900 66.0 70 55.7 NNE | 29 5.1 10.2 104 1,013.1 46 Good 0.00 0.00 59.0 72.7
Max 73.1 88 57.3 - 10.4 22.1 784 1,016.6 53 - 0.00 0.00 59.0 75.9
Avg 62.7 73 53.7 - 4.4 9.4 235 1,013.9 35 - 0.00 - - -
Min 56.3 51 48.8 - 2.3 5.3 0 1,011.3 19 - 0.00 0.00 55.6 59.4
Total - - - - - - - - - - 0.00 - - -

Last 30 Days

Stanford Met Tower

Daily Data | America/Los_Angeles
as of 9/17/21 7:10 PM PDT
Date Daily Max Temp (°F) Time of Max Temp Daily Min Temp (°F) Time of Min Temp Daily Rain (In) Monthly Rain (In) Seasonal Rainfall (In) Daily Max Wind (mph) Time of Max Wind Max Wind Dir (°) Dew Pt (°F) Max RH (%) Min RH (%) Daily ETo (in) Daily Solar Rad (Cal/cm2) PM2.5 Daily Max (ug/m3) Time of Max PM2.5 Max Pressure (mb) (mb) Time of Max Press Min pressure (mb) (mb) Time of Min Press Max Temp Inversion (°F) Time of Max Temp Inversion Min Temp Inversion (°F) Time of Min Temp Inversion HDDs (°F) CDDs (°F) GDDs (DL) Seas GDDs (DL) Chilling <=45F (hrs) Bat Volt Min Day (V)
9/16/21 71.4 1702 55.6 0751 0.00 0.00 0.02 15.5 1445 NNE | 13 53.4 88 57 0.135 497 12.3 0128 1,015.0 0031 1,011.0 1701 0.7 2101 -9.8 1328 3.8 1.2 12.4 2,177 0.0 11.8
9/15/21 72.7 1313 57.6 2234 0.00 0.00 0.02 14.4 1427 N | 0 56.6 94 58 0.135 476 23.5 0343 1,016.0 0940 1,012.0 1421 1.5 2128 -9.1 1248 3.2 1.7 13.6 2,165 0.0 12.1
9/14/21 80.6 1539 49.6 0644 0.00 0.00 0.02 12.1 1354 N | 0 55.1 95 50 0.153 517 19.3 1913 1,016.0 2305 1,011.0 1458 3.3 2225 -10.1 1416 5.5 3.8 13.4 2,151 0.0 12.1
9/13/21 81.4 1558 51.2 0612 0.00 0.00 0.02 12.4 1312 NNE | 24 55.5 95 44 0.157 524 18.8 2113 1,016.0 0134 1,011.0 1624 4.2 2325 -9.7 1245 5.2 4.3 14.1 2,138 0.0 12.1
9/12/21 84.7 1421 50.0 0650 0.00 0.00 0.02 11.4 1541 NNE | 22 56.1 95 40 0.159 511 15.5 0843 1,018.0 0751 1,013.0 1451 3.6 2330 -9.5 1321 5.1 5.6 15.5 2,124 0.0 12.1
9/11/21 80.1 1600 50.9 0546 0.00 0.00 0.02 13.4 1334 N | 352 56.0 96 48 0.156 525 10.2 0943 1,020.0 0820 1,015.0 1637 3.5 2244 -10.0 1310 4.9 4.2 14.3 2,108 0.0 12.1
9/10/21 76.9 1716 55.5 0059 0.00 0.00 0.02 18.3 1749 N | 351 57.5 94 45 0.147 508 6.3 0100 1,019.0 0005 1,014.0 0121 3.8 2250 -9.2 1207 2.7 3.0 15.3 2,094 0.0 12.1
9/9/21 77.8 1521 56.3 0407 0.00 0.00 0.02 11.4 1444 NNE | 25 58.2 94 55 0.134 442 12.7 0728 1,014.0 0059 1,011.0 1444 3.0 0204 -9.5 1458 2.3 3.6 16.3 2,078 0.0 12.1
9/8/21 90.1 1521 57.0 0635 0.00 0.00 0.02 12.0 1554 NNW | 346 58.3 90 35 0.165 511 20.5 0458 1,016.0 0739 1,010.0 1451 4.2 0203 -9.3 1252 2.2 6.8 19.5 2,062 0.0 12.1
9/7/21 86.6 1536 54.8 0503 0.00 0.00 0.02 10.8 1343 NE | 40 56.5 87 39 0.169 528 54.0 1558 1,017.0 0314 1,013.0 1625 5.7 0413 -9.6 1343 2.8 6.6 18.8 2,043 0.0 12.1
9/6/21 92.1 1602 49.6 0651 0.00 0.00 0.02 11.4 1547 N | 4 52.6 88 19 0.179 537 32.0 0100 1,018.0 0751 1,012.0 1624 5.6 2221 -8.9 1222 4.3 8.0 18.7 2,024 0.0 12.2
9/5/21 87.0 1503 48.6 0529 0.00 0.00 0.02 10.9 1550 N | 1 54.4 96 24 0.170 534 71.5 0743 1,018.0 0859 1,012.0 1502 4.4 2358 -9.7 1047 5.1 6.0 15.9 2,005 0.0 12.1
9/4/21 82.6 1635 52.6 0154 0.00 0.00 0.02 10.8 1409 NNE | 12 55.5 96 39 0.149 492 36.5 0943 1,018.0 0927 1,013.0 1700 3.6 2341 -9.5 1358 5.2 3.9 13.7 1,989 0.0 12.1
9/3/21 74.9 1515 53.5 0042 0.00 0.00 0.02 13.0 1339 NNW | 336 55.2 94 53 0.151 525 28.3 0528 1,018.0 0810 1,014.0 1452 2.3 2313 -9.6 1325 3.3 2.1 13.8 1,976 0.0 12.1
9/2/21 70.3 1721 53.1 0614 0.00 0.00 0.02 19.1 0130 SW | 218 52.4 94 56 0.137 498 28.2 1358 1,017.0 2310 1,014.0 1722 2.7 2159 -9.3 1338 4.8 1.0 11.3 1,962 0.0 12.1
9/1/21 77.4 1529 49.2 0527 0.00 0.00 0.02 22.1 1945 SSW | 197 51.4 94 41 0.172 573 14.8 0058 1,015.0 0059 1,010.0 0106 5.5 0411 -9.9 1502 5.5 2.7 12.2 1,950 0.0 12.1
8/31/21 80.5 1644 50.6 0651 0.00 0.00 0.02 19.2 1736 SSW | 195 53.8 95 36 0.173 576 22.5 0813 1,010.0 0852 1,006.0 1722 3.0 2215 -9.8 1255 4.8 3.7 13.8 1,938 0.0 12.1
8/30/21 79.1 1500 55.2 0051 0.00 0.00 0.02 11.4 1410 N | 5 58.7 96 51 0.165 550 31.8 0743 1,012.0 0124 1,006.0 1506 3.1 0121 -9.9 1246 2.9 4.2 16.3 1,924 0.0 12.1
8/29/21 85.4 1459 54.4 0632 0.00 0.00 0.02 10.5 1217 NE | 41 58.5 93 42 0.166 532 26.7 2258 1,013.0 0759 1,008.0 1514 3.3 0444 -9.8 1309 3.0 5.1 17.2 1,908 0.0 12.1
8/28/21 96.7 1536 54.8 0602 0.00 0.00 0.02 13.1 1442 NNE | 26 56.2 91 21 0.197 549 53.5 0213 1,011.0 2348 1,005.0 1524 4.6 0350 -8.2 1355 2.4 10.6 23.2 1,891 0.0 12.2
8/27/21 95.0 1602 52.3 0629 0.00 0.00 0.02 13.6 1619 NNE | 13 54.9 92 21 0.202 565 56.0 1558 1,013.0 0121 1,005.0 1727 5.0 2206 -9.7 1341 3.2 11.0 22.8 1,868 0.0 12.1
8/26/21 84.0 1735 49.2 0508 0.00 0.00 0.02 11.8 1405 N | 0 55.6 96 39 0.179 580 26.5 0813 1,019.0 0107 1,012.0 1818 4.3 2302 -9.8 1228 4.7 5.6 15.8 1,845 0.0 12.1
8/25/21 72.7 1521 53.0 0049 0.00 0.00 0.02 14.0 1548 NNE | 24 55.4 94 57 0.158 558 16.3 1158 1,019.0 0851 1,016.0 1533 3.2 2236 -9.9 1407 3.4 2.1 13.7 1,829 0.0 12.2
8/24/21 74.2 1642 57.4 2316 0.00 0.00 0.02 15.6 1416 NNE | 13 55.7 90 54 0.158 550 20.0 0843 1,017.0 0058 1,013.0 1447 1.9 2259 -9.8 1407 2.7 2.2 14.5 1,815 0.0 12.1
8/23/21 78.6 1622 56.9 0101 0.00 0.00 0.02 16.9 1636 SSW | 196 56.2 94 46 0.165 567 13.7 0028 1,015.0 0037 1,011.0 1631 1.6 0103 -9.4 1242 2.6 2.8 15.3 1,801 0.0 12.2
8/22/21 75.3 1622 54.9 0015 0.00 0.00 0.02 14.8 1402 N | 10 54.8 94 52 0.157 542 11.7 1243 1,013.0 0042 1,009.0 1721 3.6 2309 -9.8 1319 3.3 2.3 14.0 1,786 0.0 12.2
8/21/21 76.3 1534 58.9 2252 0.00 0.00 0.02 24.2 1033 WSW | 244 55.4 85 50 0.172 560 27.7 0628 1,013.0 2328 1,009.0 1536 1.0 0603 -6.6 1413 2.1 2.6 15.5 1,772 0.0 12.2
8/20/21 73.9 1302 59.8 0106 0.00 0.00 0.02 14.0 1408 NNE | 22 59.0 93 64 0.127 425 25.7 0928 1,014.0 0930 1,010.0 1920 1.1 0130 -8.0 1344 1.6 2.1 15.6 1,756 0.0 12.1
8/19/21 75.8 1628 55.4 0348 0.00 0.00 0.02 13.9 1501 NNE | 30 57.7 94 55 0.146 485 17.5 0828 1,017.0 0901 1,013.0 1631 2.8 0407 -8.9 1216 2.8 2.9 15.0 1,741 0.0 12.1
8/18/21 76.5 1437 51.5 0616 0.00 0.00 0.02 14.4 1514 N | 3 54.3 94 47 0.140 451 25.0 1728 1,015.0 0058 1,011.0 0136 2.5 2346 -8.2 1401 4.4 3.0 13.6 1,726 0.0 12.1
Max 96.7 - 59.8 - 0.00 0.00 - 24.2 - - 59.0 96 64 0.202 580 71.5 - 1,020.0 - 1,016.0 - 5.7 - -6.6 - 5.5 11.0 23.2 - 0.0 12.2
Avg - - - - - 0.00 - - - - 55.7 - - - - - - 1,015.7 - 1,011.0 - - - - - - - 15.5 - 0.0 -
Min 70.3 - 48.6 - 0.00 0.00 - 10.5 - - 51.4 85 19 0.127 425 6.3 - 1,010.0 - 1,005.0 - 0.7 - -10.1 - 1.6 1.0 11.3 - 0.0 11.8
Total - - - - - - - - - - - - - - - - - - - - - - - - - - - 465.0 - 0.0 -
Calm: 0.0%
Calm: 0.0%

Climate Summary

Stanford Met Tower

Current Year | Showing 1/1/21 - 9/16/21
as of 9/17/21 7:10 PM PDT
Temperature (°F) Precip (in) Days
Month Days Avg Max Avg Min Max Max Min Min Total Daily Min Temp < 32 Daily Min Temp < 40 Daily Max Temp > 90 Daily Max Temp > 100 Daily Rain > 0.01 Daily Rain > 0.1
Jan 2021 31 61.5 39.3 77.7 31 3.78 2 16 0 0 7 7
Feb 2021 28 64.3 38.5 77.4 32.8 0.57 0 19 0 0 5 2
Mar 2021 31 64.3 36.9 82.6 32.3 1.19 0 26 0 0 6 6
Apr 2021 30 69.1 40 84.5 35.2 0 0 14 0 0 0 0
May 2021 31 74.5 45.7 87.4 38.8 0 0 1 0 0 0 0
Jun 2021 30 78.2 52.3 101.4 42.2 0.02 0 0 3 1 0 0
Jul 2021 31 78.9 55.5 86.7 48.7 0.02 0 0 0 0 0 0
Aug 2021 31 80.1 55.5 96.7 49.2 0 0 0 2 0 0 0
Sep 2021 16 80.4 52.8 92.1 48.6 0 0 0 2 0 0 0
Total 259 - - - - 5.58 2 76 7 1 18 15
Average 28.8 72.4 46.3 - - 0.62 0.2 8.4 0.8 0.1 2 1.7
Maximum 31 80.4 55.5 101.4 - 3.78 2 26 3 1 7 7
Minimum 16 61.5 36.9 - 31 0 0 0 0 0 0 0

Climate Summary

Stanford Met Tower

Last Year | Showing 1/1/20 - 12/31/20
as of 9/17/21 7:10 PM PDT
Temperature (°F) Precip (in) Days
Month Days Avg Max Avg Min Max Max Min Min Total Daily Min Temp < 32 Daily Min Temp < 40 Daily Max Temp > 90 Daily Max Temp > 100 Daily Rain > 0.01 Daily Rain > 0.1
Jan 2020 31 60.2 38.4 84.2 32.1 0.94 0 21 0 0 5 1
Feb 2020 29 66.4 37.1 77.7 29.2 0 3 24 0 0 0 0
Mar 2020 31 63 41.7 78.5 33.1 1.63 0 10 0 0 10 5
Apr 2020 30 69.6 44.4 85.5 34.1 0.94 0 6 0 0 3 3
May 2020 31 77.2 48.2 96.7 37.8 0.21 0 1 4 0 2 1
Jun 2020 30 79.7 52.9 95.6 44.5 0 0 0 5 0 0 0
Jul 2020 31 80.3 54.1 93.1 47.9 0 0 0 1 0 0 0
Aug 2020 31 83.6 57.8 101.6 51 0.13 0 0 7 1 1 1
Sep 2020 30 82.5 54.8 107.5 50.1 0.02 0 0 5 2 1 0
Oct 2020 31 81.4 49 95.1 39.7 0 0 2 7 0 0 0
Nov 2020 30 65.9 38.1 80.1 29.5 0.44 5 17 0 0 4 2
Dec 2020 31 61.7 36.1 74.5 29.5 1.25 3 27 0 0 6 3
Total 366 - - - - 5.56 11 108 29 3 32 16
Average 30.5 72.6 46.1 - - 0.46 0.9 9 2.4 0.2 2.7 1.3
Maximum 31 83.6 57.8 107.5 - 1.63 5 27 7 2 10 5
Minimum 29 60.2 36.1 - 29.2 0 0 0 0 0 0 0

Climate Summary 2018

Stanford Met Tower

1/1/2018 - 12/31/2018 | Showing 1/1/18 - 12/31/18
as of 9/17/21 7:10 PM PDT
Temperature (°F) Precip (in) Days
Month Days Avg Max Avg Min Max Max Min Min Total Daily Min Temp < 32 Daily Min Temp < 40 Daily Max Temp > 90 Daily Max Temp > 100 Daily Rain > 0.01 Daily Rain > 0.1
Jan 2018 31 64.1 41.9 74 33.4 3.42 0 13 0 0 9 5
Feb 2018 28 69.4 36.9 83.9 26.6 0.33 6 17 0 0 2 1
Mar 2018 31 68.7 41.1 87 32.2 3.53 0 14 0 0 13 10
Apr 2018 30 73.2 43.4 85.7 36 1.38 0 6 0 0 7 3
May 2018 31 75.3 47.2 95.5 40.8 0 0 0 1 0 0 0
Jun 2018 30 84.1 49.6 101.9 42.5 0 0 0 8 1 0 0
Jul 2018 31 85.4 55.9 96.9 51.5 0.02 0 0 6 0 0 0
Aug 2018 31 84.4 53.5 94.5 47.9 0 0 0 7 0 0 0
Sep 2018 28 83.2 48.8 95.7 42.6 0 0 0 3 0 0 0
Oct 2018 31 79.9 46.7 88.1 39.6 0.05 0 1 0 0 2 0
Nov 2018 30 70.8 40.8 86.5 31.5 1.95 1 15 0 0 6 4
Dec 2018 31 61.7 39.4 67.1 31.1 1.44 1 20 0 0 7 5
Total 363 - - - - 12.12 8 86 25 1 46 28
Average 30.2 75 45.4 - - 1.01 0.7 7.2 2.1 0.1 3.8 2.3
Maximum 31 85.4 55.9 101.9 - 3.53 6 20 8 1 13 10
Minimum 28 61.7 36.9 - 26.6 0 0 0 0 0 0 0

Climate Summary 2017

Stanford Met Tower

1/1/2017 - 12/31/2017 | Showing 1/1/17 - 12/31/17
as of 9/17/21 7:10 PM PDT
Temperature (°F) Precip (in) Days
Month Days Avg Max Avg Min Max Max Min Min Total Daily Min Temp < 32 Daily Min Temp < 40 Daily Max Temp > 90 Daily Max Temp > 100 Daily Rain > 0.01 Daily Rain > 0.1
Jan 2017 31 59.2 38.6 67.9 27.2 10.05 5 17 0 0 17 13
Feb 2017 28 63.5 44.2 72.8 31.9 8.52 1 10 0 0 14 12
Mar 2017 31 71.7 43.2 84.4 33 2.7 0 7 0 0 8 7
Apr 2017 30 73.7 44.7 86.2 36.3 2.08 0 5 0 0 9 6
May 2017 31 79.6 48.3 96 41 0.01 0 0 6 0 0 0
Jun 2017 30 84.1 52.1 106.2 42.7 0.04 0 0 7 1 1 0
Jul 2017 31 88.3 53.9 103.6 47.6 0.01 0 0 8 3 0 0
Aug 2017 31 85 56.6 98.6 50.5 0 0 0 7 0 0 0
Sep 2017 30 87.4 54.8 110.8 43.7 0.06 0 0 10 2 1 0
Oct 2017 31 81.7 45.1 95.5 38.6 0.13 0 1 4 0 2 0
Nov 2017 30 68.5 44.8 75.4 35.9 2.67 0 6 0 0 8 4
Dec 2017 31 64.4 33.9 72.8 27.9 0.1 5 31 0 0 2 0
Total 365 - - - - 26.37 11 77 42 6 62 42
Average 30.4 75.6 46.7 - - 2.2 0.9 6.4 3.5 0.5 5.2 3.5
Maximum 31 88.3 56.6 110.8 - 10.05 5 31 10 3 17 13
Minimum 28 59.2 33.9 - 27.2 0 0 0 0 0 0 0